createdAt,value
2023-02-12T00:00:04.421Z,159.4
2023-02-12T00:05:02.442Z,162.0
2023-02-12T00:10:03.266Z,160.8
2023-02-12T00:15:02.251Z,165.4
2023-02-12T00:20:02.231Z,171.8
2023-02-12T00:25:02.386Z,178.8
2023-02-12T00:30:02.280Z,180.6
2023-02-12T00:35:01.983Z,182.2
2023-02-12T00:40:01.921Z,180.6
2023-02-12T00:50:02.222Z,167.6
2023-02-12T00:55:02.401Z,163.8
2023-02-12T01:00:01.922Z,162.7
2023-02-12T01:05:02.575Z,162.2
2023-02-12T01:10:02.393Z,163.4
2023-02-12T01:20:03.367Z,149.8
2023-02-12T01:25:02.200Z,142.2
2023-02-12T01:30:01.929Z,136.5
2023-02-12T01:35:02.058Z,132.0
2023-02-12T01:40:01.910Z,130.9
2023-02-12T02:00:01.803Z,136.0
2023-02-12T02:05:01.678Z,132.1
2023-02-12T02:10:01.198Z,128.1
2023-02-12T02:15:01.894Z,125.4
2023-02-12T02:20:02.015Z,131.0
2023-02-12T02:40:03.038Z,172.2
2023-02-12T02:50:02.151Z,148.6
2023-02-12T02:55:05.853Z,149.7
2023-02-12T03:20:02.232Z,121.4
2023-02-12T03:25:03.020Z,134.2
2023-02-12T03:30:01.625Z,135.7
2023-02-12T03:35:01.612Z,144.2
2023-02-12T03:40:01.930Z,141.5
2023-02-12T04:00:01.666Z,116.0
2023-02-12T04:10:01.231Z,124.9
2023-02-12T04:15:01.883Z,125.9
2023-02-12T04:20:02.377Z,133.2
2023-02-12T04:25:01.851Z,141.0
2023-02-12T04:30:01.649Z,140.6
2023-02-12T04:35:01.377Z,136.9
2023-02-12T04:45:01.509Z,129.7
2023-02-12T04:50:01.570Z,124.2
2023-02-12T04:55:01.660Z,125.2
2023-02-12T05:00:01.355Z,132.2
2023-02-12T05:05:02.853Z,135.8
2023-02-12T05:10:02.354Z,144.6
2023-02-12T05:15:06.419Z,147.7
2023-02-12T05:20:01.235Z,154.9
2023-02-12T05:25:08.378Z,152.8
2023-02-12T05:30:01.303Z,145.1
2023-02-12T05:35:06.345Z,136.8
2023-02-12T05:50:01.973Z,108.6
2023-02-12T05:55:06.374Z,103.3
2023-02-12T06:15:02.436Z,103.9
2023-02-12T06:20:01.625Z,107.4
2023-02-12T06:25:01.365Z,110.0
2023-02-12T06:30:01.868Z,109.0
2023-02-12T06:35:01.411Z,107.4
2023-02-12T06:40:01.255Z,106.1
2023-02-12T06:50:02.273Z,96.1
2023-02-12T06:55:01.307Z,91.1
2023-02-12T07:00:01.304Z,89.4
2023-02-12T07:05:01.387Z,89.1
2023-02-12T07:10:01.510Z,92.4
2023-02-12T07:15:01.746Z,111.4
2023-02-12T07:25:01.445Z,119.3
2023-02-12T07:30:01.574Z,123.9
2023-02-12T11:30:02.497Z,76.0
2023-02-12T11:35:02.032Z,71.3
2023-02-12T11:40:01.972Z,75.5
2023-02-12T11:45:02.357Z,76.0
2023-02-12T11:55:02.156Z,79.3
2023-02-12T12:00:01.961Z,83.4
2023-02-12T12:05:02.498Z,84.4
2023-02-12T12:10:01.985Z,85.5
2023-02-12T12:15:02.171Z,86.7
2023-02-12T12:25:02.006Z,88.3
2023-02-12T12:30:02.333Z,85.6
2023-02-12T12:35:03.440Z,83.2
2023-02-12T12:40:02.963Z,80.3
2023-02-12T13:10:02.507Z,83.1
2023-02-12T13:30:01.809Z,76.4
2023-02-12T15:10:01.820Z,74.2
2023-02-12T18:50:03.164Z,172.8
2023-02-12T18:55:02.416Z,168.6
2023-02-12T19:05:02.275Z,167.7
2023-02-12T19:20:01.937Z,166.5
2023-02-12T19:25:02.005Z,164.3
2023-02-12T19:30:01.995Z,164.3
2023-02-12T19:35:07.032Z,162.2
2023-02-12T19:40:01.980Z,158.6
2023-02-12T19:50:02.784Z,152.6
2023-02-12T19:55:02.024Z,151.4
2023-02-12T20:00:01.968Z,154.5
2023-02-12T20:05:02.065Z,153.6
2023-02-12T20:20:02.380Z,163.1
2023-02-12T20:25:02.097Z,160.1
2023-02-12T20:40:02.315Z,153.3
2023-02-12T20:50:02.375Z,160.4
2023-02-12T21:00:01.999Z,169.9
2023-02-12T21:05:02.457Z,174.6
2023-02-12T21:10:02.325Z,178.1
2023-02-12T21:15:02.152Z,186.3
2023-02-12T21:20:02.361Z,202.6
2023-02-12T21:25:02.438Z,209.5
2023-02-12T21:35:02.502Z,226.0
2023-02-12T21:40:01.867Z,229.6
2023-02-12T21:50:02.125Z,218.0
2023-02-12T21:55:02.433Z,211.8
2023-02-12T22:05:02.056Z,213.8
2023-02-12T22:10:02.022Z,203.5
2023-02-12T22:20:01.879Z,176.1
2023-02-12T22:25:02.052Z,165.8
2023-02-12T22:35:02.026Z,116.9
2023-02-12T22:40:06.813Z,109.9
2023-02-12T22:50:01.854Z,104.4
2023-02-12T22:55:02.346Z,99.7
2023-02-12T23:05:08.168Z,97.8
2023-02-12T23:10:02.463Z,88.3
2023-02-12T23:20:01.828Z,86.2
2023-02-12T23:35:02.957Z,81.5
2023-02-12T23:40:02.172Z,83.3
2023-02-12T23:45:02.199Z,83.5
2023-02-12T23:50:07.165Z,83.4
2023-02-12T23:55:07.407Z,86.4
